createdAt,value
2023-01-03T00:04:27.943Z,96775.19
2023-01-03T00:09:29.656Z,96785.00
2023-01-03T00:14:34.448Z,96784.25
2023-01-03T00:19:39.551Z,96794.69
2023-01-03T00:24:42.087Z,96796.16
2023-01-03T00:29:44.172Z,96791.81
2023-01-03T00:34:46.512Z,96801.41
2023-01-03T00:39:48.059Z,96789.75
2023-01-03T00:44:49.559Z,96791.84
2023-01-03T00:49:51.024Z,96783.94
2023-01-03T00:54:52.453Z,96785.22
2023-01-03T00:59:53.957Z,96796.41
2023-01-03T01:04:55.500Z,96791.84
2023-01-03T01:09:57.028Z,96787.41
2023-01-03T01:14:58.553Z,96790.41
2023-01-03T01:20:00.007Z,96789.91
2023-01-03T01:25:01.971Z,96786.69
2023-01-03T01:30:04.779Z,96786.28
2023-01-03T01:35:06.773Z,96792.19
2023-01-03T01:40:08.912Z,96793.00
2023-01-03T01:45:14.453Z,96788.44
2023-01-03T01:50:22.556Z,96787.63
2023-01-03T01:55:30.047Z,96781.97
2023-01-03T02:00:32.923Z,96789.38
2023-01-03T02:05:36.968Z,96795.97
2023-01-03T02:10:56.771Z,96772.38
2023-01-03T02:16:24.036Z,96777.22
2023-01-03T02:21:53.569Z,96778.16
2023-01-03T02:27:03.019Z,96769.56
2023-01-03T02:32:17.744Z,96767.25
2023-01-03T02:37:32.778Z,96768.16
2023-01-03T02:42:46.505Z,96766.31
2023-01-03T02:47:57.916Z,96758.50
2023-01-03T02:53:05.527Z,96754.41
2023-01-03T02:58:12.780Z,96751.03
2023-01-03T03:03:19.565Z,96753.22
2023-01-03T03:08:21.199Z,96760.16
2023-01-03T03:13:34.054Z,96745.84
2023-01-03T03:18:50.497Z,96753.88
2023-01-03T03:23:54.306Z,96761.69
2023-01-03T03:29:02.485Z,96756.25
2023-01-03T03:34:21.844Z,96761.22
2023-01-03T03:39:24.869Z,96766.34
2023-01-03T03:44:38.250Z,96765.00
2023-01-03T03:49:43.914Z,96764.47
2023-01-03T03:54:52.318Z,96752.34
2023-01-03T03:59:58.810Z,96758.47
2023-01-03T04:05:03.562Z,96764.41
2023-01-03T04:10:06.294Z,96766.06
2023-01-03T04:15:08.147Z,96757.97
2023-01-03T04:20:11.092Z,96766.38
2023-01-03T04:25:12.686Z,96771.22
2023-01-03T04:30:14.239Z,96767.16
2023-01-03T04:35:15.745Z,96775.59
2023-01-03T04:40:17.375Z,96775.81
2023-01-03T04:45:18.855Z,96765.81
2023-01-03T04:50:20.320Z,96779.69
2023-01-03T04:55:22.061Z,96780.88
2023-01-03T05:00:23.533Z,96780.88
2023-01-03T05:05:25.015Z,96776.25
2023-01-03T05:10:26.480Z,96789.44
2023-01-03T05:15:34.318Z,96783.69
2023-01-03T05:20:37.123Z,96775.75
2023-01-03T05:25:38.630Z,96786.03
2023-01-03T05:30:40.160Z,96805.81
2023-01-03T05:35:41.611Z,96814.59
2023-01-03T05:40:43.482Z,96824.88
2023-01-03T05:45:49.114Z,96821.72
2023-01-03T05:50:50.614Z,96818.06
2023-01-03T05:55:52.393Z,96821.44
2023-01-03T06:00:53.889Z,96835.28
2023-01-03T06:05:55.421Z,96830.31
2023-01-03T06:10:56.941Z,96839.47
2023-01-03T06:16:09.703Z,96839.59
2023-01-03T06:21:11.212Z,96838.31
2023-01-03T06:26:16.228Z,96839.63
2023-01-03T06:31:18.170Z,96844.28
2023-01-03T06:36:21.534Z,96860.53
2023-01-03T06:41:23.041Z,96853.25
2023-01-03T06:46:24.720Z,96862.22
2023-01-03T06:51:27.820Z,96870.44
2023-01-03T06:56:29.340Z,96868.75
2023-01-03T07:01:31.077Z,96880.81
2023-01-03T07:06:32.630Z,96874.69
2023-01-03T07:11:34.486Z,96885.25
2023-01-03T07:16:55.957Z,96882.81
2023-01-03T07:21:57.473Z,96887.47
2023-01-03T07:26:58.945Z,96891.81
2023-01-03T07:32:00.450Z,96891.50
2023-01-03T07:37:01.953Z,96901.50
2023-01-03T07:42:03.480Z,96905.00
2023-01-03T07:47:05.009Z,96906.91
2023-01-03T07:52:06.485Z,96910.91
2023-01-03T07:57:07.989Z,96907.31
2023-01-03T08:02:09.572Z,96914.41
2023-01-03T08:07:11.230Z,96907.53
2023-01-03T08:12:12.724Z,96909.97
2023-01-03T08:17:14.167Z,96904.56
2023-01-03T08:22:15.678Z,96910.19
2023-01-03T08:27:17.134Z,96917.66
2023-01-03T08:32:19.177Z,96917.25
2023-01-03T08:37:21.160Z,96934.13
2023-01-03T08:42:23.995Z,96936.03
2023-01-03T08:47:25.556Z,96930.13
2023-01-03T08:52:33.109Z,96942.03
2023-01-03T08:57:36.460Z,96944.28
2023-01-03T09:02:38.140Z,96959.56
2023-01-03T09:07:39.900Z,96967.91
2023-01-03T09:12:41.404Z,96964.09
2023-01-03T09:17:42.959Z,96972.34
2023-01-03T09:22:44.700Z,96973.91
2023-01-03T09:27:47.610Z,96973.59
2023-01-03T09:32:52.195Z,96982.47
2023-01-03T09:37:53.704Z,96990.91
2023-01-03T09:43:04.440Z,96988.81
2023-01-03T09:48:06.534Z,96985.72
2023-01-03T09:53:18.504Z,96995.88
2023-01-03T09:58:20.504Z,96993.00
2023-01-03T10:03:52.804Z,96997.13
2023-01-03T10:09:06.457Z,96982.78
2023-01-03T10:14:26.341Z,96970.31
2023-01-03T10:19:30.506Z,96958.06
2023-01-03T10:24:44.667Z,96969.38
2023-01-03T10:29:47.806Z,96968.47
2023-01-03T10:35:23.442Z,96961.50
2023-01-03T10:40:58.285Z,96956.78
2023-01-03T10:45:59.805Z,96963.94
2023-01-03T10:51:05.042Z,96957.78
2023-01-03T10:56:07.514Z,96956.31
2023-01-03T11:01:19.968Z,96956.47
2023-01-03T11:06:21.698Z,96954.94
2023-01-03T11:11:32.070Z,96943.91
2023-01-03T11:16:33.674Z,96945.44
2023-01-03T11:21:50.386Z,96949.50
2023-01-03T11:27:26.882Z,96932.78
2023-01-03T11:32:35.939Z,96946.41
2023-01-03T11:37:56.657Z,96939.25
2023-01-03T11:43:34.954Z,96932.22
2023-01-03T11:49:11.862Z,96935.31
2023-01-03T11:54:53.142Z,96931.53
2023-01-03T12:00:11.931Z,96930.91
2023-01-03T12:05:30.837Z,96926.25
2023-01-03T12:10:53.821Z,96921.38
2023-01-03T12:16:10.352Z,96924.44
2023-01-03T12:21:18.648Z,96919.28
2023-01-03T12:26:24.980Z,96921.16
2023-01-03T12:31:44.060Z,96926.91
2023-01-03T12:37:08.449Z,96924.66
2023-01-03T12:42:36.436Z,96917.03
2023-01-03T12:47:46.995Z,96921.34
2023-01-03T12:52:58.523Z,96922.06
2023-01-03T12:58:39.270Z,96924.03
2023-01-03T13:03:52.896Z,96921.03
2023-01-03T13:09:02.773Z,96917.59
2023-01-03T13:14:16.066Z,96921.91
2023-01-03T13:19:20.584Z,96913.94
2023-01-03T13:24:40.244Z,96913.44
2023-01-03T13:29:43.369Z,96926.78
2023-01-03T13:34:44.898Z,96917.47
2023-01-03T13:39:57.991Z,96923.00
2023-01-03T13:45:11.430Z,96924.66
2023-01-03T13:50:32.270Z,96923.34
2023-01-03T13:55:40.468Z,96909.72
2023-01-03T14:00:43.094Z,96917.16
2023-01-03T14:06:25.462Z,96923.63
2023-01-03T14:11:45.531Z,96925.44
2023-01-03T14:16:55.368Z,96941.91
2023-01-03T14:22:28.591Z,96946.34
2023-01-03T14:27:38.627Z,96955.44
2023-01-03T14:32:40.130Z,96954.13
2023-01-03T14:37:46.205Z,96961.03
2023-01-03T14:42:47.784Z,96964.31
2023-01-03T14:47:53.420Z,96961.25
2023-01-03T14:52:57.611Z,96955.88
2023-01-03T14:58:04.795Z,96955.56
2023-01-03T15:03:12.673Z,96967.19
2023-01-03T15:08:30.161Z,96971.56
2023-01-03T15:13:52.093Z,96968.66
2023-01-03T15:19:03.162Z,96980.72
2023-01-03T15:24:05.369Z,96975.13
2023-01-03T15:29:17.427Z,96962.56
2023-01-03T15:34:20.081Z,96964.06
2023-01-03T15:39:25.518Z,96960.16
2023-01-03T15:44:28.107Z,96969.66
2023-01-03T15:49:31.695Z,96970.72
2023-01-03T15:54:33.261Z,96975.66
2023-01-03T15:59:42.920Z,96977.59
2023-01-03T16:04:46.590Z,96985.81
2023-01-03T16:09:48.566Z,96985.09
2023-01-03T16:14:52.944Z,96986.50
2023-01-03T16:19:56.387Z,96988.56
2023-01-03T16:24:57.894Z,96982.88
2023-01-03T16:29:59.560Z,96991.09
2023-01-03T16:35:03.606Z,97006.69
2023-01-03T16:40:10.606Z,97003.56
2023-01-03T16:45:12.627Z,96997.13
2023-01-03T16:50:17.373Z,96999.97
2023-01-03T16:55:26.517Z,96991.00
2023-01-03T17:00:30.128Z,96999.81
2023-01-03T17:05:33.848Z,97000.16
2023-01-03T17:10:40.637Z,97002.44
2023-01-03T17:15:42.147Z,96995.53
2023-01-03T17:20:43.691Z,97001.16
2023-01-03T17:25:45.190Z,97003.91
2023-01-03T17:30:47.237Z,97005.69
2023-01-03T17:35:48.891Z,97006.84
2023-01-03T17:40:51.223Z,97000.41
2023-01-03T17:45:55.275Z,97007.03
2023-01-03T17:50:58.218Z,97003.88
2023-01-03T17:55:59.867Z,97013.94
2023-01-03T18:01:01.906Z,97011.41
2023-01-03T18:06:15.642Z,97015.31
2023-01-03T18:11:23.311Z,97008.88
2023-01-03T18:16:24.918Z,97010.88
2023-01-03T18:21:27.181Z,97019.38
2023-01-03T18:26:34.232Z,97016.78
2023-01-03T18:31:35.731Z,97020.59
2023-01-03T18:36:43.301Z,97020.66
2023-01-03T18:41:44.768Z,97034.53
2023-01-03T18:46:46.259Z,97025.03
2023-01-03T18:51:52.643Z,97018.81
2023-01-03T18:56:54.196Z,97018.53
2023-01-03T19:01:55.747Z,97017.56
2023-01-03T19:06:57.330Z,97009.31
2023-01-03T19:11:58.792Z,97020.03
2023-01-03T19:17:00.345Z,97024.06
2023-01-03T19:22:02.645Z,97022.28
2023-01-03T19:27:06.124Z,97024.31
2023-01-03T19:32:16.343Z,97026.63
2023-01-03T19:37:18.245Z,97035.84
2023-01-03T19:42:21.005Z,97046.56
2023-01-03T19:47:22.461Z,97042.47
2023-01-03T19:52:23.935Z,97033.59
2023-01-03T19:57:31.785Z,97022.06
2023-01-03T20:02:37.140Z,97014.94
2023-01-03T20:07:38.769Z,97027.97
2023-01-03T20:12:40.234Z,97038.59
2023-01-03T20:17:41.699Z,97034.78
2023-01-03T20:28:06.983Z,97047.28
2023-01-03T20:33:08.530Z,97045.09
2023-01-03T20:38:11.648Z,97044.97
2023-01-03T20:43:13.790Z,97040.06
2023-01-03T20:48:21.278Z,97035.78
2023-01-03T20:53:27.058Z,97043.13
2023-01-03T20:58:28.594Z,97037.78
2023-01-03T21:03:30.126Z,97044.66
2023-01-03T21:08:31.680Z,97055.75
2023-01-03T21:13:33.241Z,97054.28
2023-01-03T21:18:34.730Z,97053.16
2023-01-03T21:23:36.184Z,97056.47
2023-01-03T21:28:37.683Z,97051.06
2023-01-03T21:33:39.116Z,97048.44
2023-01-03T21:38:40.621Z,97039.31
2023-01-03T21:43:42.155Z,97043.38
2023-01-03T21:48:43.872Z,97045.28
2023-01-03T21:53:45.631Z,97044.88
2023-01-03T21:58:47.835Z,97039.72
2023-01-03T22:03:50.403Z,97023.53
2023-01-03T22:08:52.916Z,97030.59
2023-01-03T22:13:56.693Z,97033.31
2023-01-03T22:18:58.828Z,97036.22
2023-01-03T22:24:00.355Z,97044.22
2023-01-03T22:29:01.811Z,97036.22
2023-01-03T22:34:03.715Z,97042.16
2023-01-03T22:39:05.275Z,97043.91
2023-01-03T22:44:06.985Z,97035.66
2023-01-03T22:49:08.631Z,97041.56
2023-01-03T22:54:10.171Z,97033.53
2023-01-03T22:59:11.708Z,97037.19
2023-01-03T23:04:13.463Z,97031.19
2023-01-03T23:09:15.059Z,97033.25
2023-01-03T23:14:21.207Z,97030.63
2023-01-03T23:19:25.579Z,97019.50
2023-01-03T23:24:27.057Z,97022.53
2023-01-03T23:29:28.563Z,97023.28
2023-01-03T23:34:30.088Z,97022.06
2023-01-03T23:39:31.620Z,97018.13
2023-01-03T23:44:33.102Z,97019.50
2023-01-03T23:49:34.650Z,97017.38
2023-01-03T23:54:36.176Z,97012.84
2023-01-03T23:59:37.636Z,97014.81
